sensor_id;sensor_type;location;lat;lon;timestamp;temperature;humidity
75466;HTU21D;64049;46.290;44.240;2022-10-12T00:01:54;9.77;80.43
75466;HTU21D;64049;46.290;44.240;2022-10-12T00:04:20;9.78;80.33
75466;HTU21D;64049;46.290;44.240;2022-10-12T00:06:46;9.78;80.24
75466;HTU21D;64049;46.290;44.240;2022-10-12T00:09:12;9.79;80.14
75466;HTU21D;64049;46.290;44.240;2022-10-12T00:11:38;9.76;80.14
75466;HTU21D;64049;46.290;44.240;2022-10-12T00:14:06;9.72;80.24
75466;HTU21D;64049;46.290;44.240;2022-10-12T00:16:32;9.70;80.33
75466;HTU21D;64049;46.290;44.240;2022-10-12T00:18:59;9.67;80.43
75466;HTU21D;64049;46.290;44.240;2022-10-12T00:21:27;9.67;80.52
75466;HTU21D;64049;46.290;44.240;2022-10-12T00:23:57;9.67;80.58
75466;HTU21D;64049;46.290;44.240;2022-10-12T00:26:24;9.64;80.58
75466;HTU21D;64049;46.290;44.240;2022-10-12T00:28:55;9.64;80.63
75466;HTU21D;64049;46.290;44.240;2022-10-12T00:31:22;9.66;80.62
75466;HTU21D;64049;46.290;44.240;2022-10-12T00:33:48;9.68;80.60
75466;HTU21D;64049;46.290;44.240;2022-10-12T00:36:17;9.69;80.52
75466;HTU21D;64049;46.290;44.240;2022-10-12T00:38:44;9.71;80.44
75466;HTU21D;64049;46.290;44.240;2022-10-12T00:41:12;9.74;80.33
75466;HTU21D;64049;46.290;44.240;2022-10-12T00:43:40;9.76;80.25
75466;HTU21D;64049;46.290;44.240;2022-10-12T00:46:43;9.79;80.19
75466;HTU21D;64049;46.290;44.240;2022-10-12T00:49:17;9.80;80.04
75466;HTU21D;64049;46.290;44.240;2022-10-12T00:51:49;9.82;79.95
75466;HTU21D;64049;46.290;44.240;2022-10-12T00:54:21;9.83;79.90
75466;HTU21D;64049;46.290;44.240;2022-10-12T00:56:50;9.85;79.78
75466;HTU21D;64049;46.290;44.240;2022-10-12T00:59:21;9.85;79.72
75466;HTU21D;64049;46.290;44.240;2022-10-12T01:01:48;9.86;79.70
75466;HTU21D;64049;46.290;44.240;2022-10-12T01:04:14;9.90;79.66
75466;HTU21D;64049;46.290;44.240;2022-10-12T01:06:40;9.91;79.60
75466;HTU21D;64049;46.290;44.240;2022-10-12T01:09:06;9.91;79.56
75466;HTU21D;64049;46.290;44.240;2022-10-12T01:11:32;9.91;79.54
75466;HTU21D;64049;46.290;44.240;2022-10-12T01:13:58;9.94;79.54
75466;HTU21D;64049;46.290;44.240;2022-10-12T01:16:50;9.93;79.49
75466;HTU21D;64049;46.290;44.240;2022-10-12T01:22:14;9.96;79.41
75466;HTU21D;64049;46.290;44.240;2022-10-12T01:27:51;9.97;79.44
75466;HTU21D;64049;46.290;44.240;2022-10-12T01:30:23;9.98;79.43
75466;HTU21D;64049;46.290;44.240;2022-10-12T01:36:23;10.01;79.32
75466;HTU21D;64049;46.290;44.240;2022-10-12T01:38:58;10.03;79.27
75466;HTU21D;64049;46.290;44.240;2022-10-12T01:41:46;10.07;79.15
75466;HTU21D;64049;46.290;44.240;2022-10-12T01:44:19;10.08;79.07
75466;HTU21D;64049;46.290;44.240;2022-10-12T01:46:45;10.10;78.87
75466;HTU21D;64049;46.290;44.240;2022-10-12T01:49:13;10.11;78.85
75466;HTU21D;64049;46.290;44.240;2022-10-12T01:54:43;10.15;78.48
75466;HTU21D;64049;46.290;44.240;2022-10-12T01:57:18;10.16;78.50
75466;HTU21D;64049;46.290;44.240;2022-10-12T01:59:56;10.18;78.43
75466;HTU21D;64049;46.290;44.240;2022-10-12T02:02:39;10.18;78.33
75466;HTU21D;64049;46.290;44.240;2022-10-12T02:05:18;10.18;78.18
75466;HTU21D;64049;46.290;44.240;2022-10-12T02:07:54;10.15;78.12
75466;HTU21D;64049;46.290;44.240;2022-10-12T02:10:27;10.15;78.01
75466;HTU21D;64049;46.290;44.240;2022-10-12T02:12:56;10.16;77.89
75466;HTU21D;64049;46.290;44.240;2022-10-12T02:15:24;10.18;77.68
75466;HTU21D;64049;46.290;44.240;2022-10-12T02:17:52;10.15;77.66
75466;HTU21D;64049;46.290;44.240;2022-10-12T02:20:19;10.15;77.55
75466;HTU21D;64049;46.290;44.240;2022-10-12T02:22:49;10.13;77.53
75466;HTU21D;64049;46.290;44.240;2022-10-12T02:25:20;10.14;77.52
75466;HTU21D;64049;46.290;44.240;2022-10-12T02:27:53;10.13;77.41
75466;HTU21D;64049;46.290;44.240;2022-10-12T02:30:20;10.11;77.44
75466;HTU21D;64049;46.290;44.240;2022-10-12T02:36:00;10.08;77.50
75466;HTU21D;64049;46.290;44.240;2022-10-12T02:38:31;10.08;77.45
75466;HTU21D;64049;46.290;44.240;2022-10-12T02:41:10;10.11;77.44
75466;HTU21D;64049;46.290;44.240;2022-10-12T02:43:42;10.13;77.34
75466;HTU21D;64049;46.290;44.240;2022-10-12T02:46:10;10.14;77.33
75466;HTU21D;64049;46.290;44.240;2022-10-12T02:48:38;10.18;77.29
75466;HTU21D;64049;46.290;44.240;2022-10-12T02:51:06;10.20;77.25
75466;HTU21D;64049;46.290;44.240;2022-10-12T02:53:33;10.22;77.24
75466;HTU21D;64049;46.290;44.240;2022-10-12T02:56:05;10.23;77.15
75466;HTU21D;64049;46.290;44.240;2022-10-12T02:58:31;10.24;77.08
75466;HTU21D;64049;46.290;44.240;2022-10-12T03:00:57;10.25;77.05
75466;HTU21D;64049;46.290;44.240;2022-10-12T03:03:23;10.27;77.01
75466;HTU21D;64049;46.290;44.240;2022-10-12T03:05:49;10.27;76.99
75466;HTU21D;64049;46.290;44.240;2022-10-12T03:08:15;10.27;76.97
75466;HTU21D;64049;46.290;44.240;2022-10-12T03:10:41;10.27;76.84
75466;HTU21D;64049;46.290;44.240;2022-10-12T03:13:07;10.25;76.80
75466;HTU21D;64049;46.290;44.240;2022-10-12T03:15:32;10.21;76.80
75466;HTU21D;64049;46.290;44.240;2022-10-12T03:17:58;10.19;76.86
75466;HTU21D;64049;46.290;44.240;2022-10-12T03:20:24;10.16;76.77
75466;HTU21D;64049;46.290;44.240;2022-10-12T03:22:51;10.16;76.92
75466;HTU21D;64049;46.290;44.240;2022-10-12T03:25:17;10.18;76.91
75466;HTU21D;64049;46.290;44.240;2022-10-12T03:27:43;10.16;76.89
75466;HTU21D;64049;46.290;44.240;2022-10-12T03:30:09;10.20;76.76
75466;HTU21D;64049;46.290;44.240;2022-10-12T03:32:36;10.21;76.86
75466;HTU21D;64049;46.290;44.240;2022-10-12T03:35:03;10.21;76.88
75466;HTU21D;64049;46.290;44.240;2022-10-12T03:37:29;10.21;76.92
75466;HTU21D;64049;46.290;44.240;2022-10-12T03:39:55;10.22;76.98
75466;HTU21D;64049;46.290;44.240;2022-10-12T03:42:21;10.23;76.99
75466;HTU21D;64049;46.290;44.240;2022-10-12T03:44:47;10.25;76.97
75466;HTU21D;64049;46.290;44.240;2022-10-12T03:47:13;10.25;76.88
75466;HTU21D;64049;46.290;44.240;2022-10-12T03:49:39;10.26;76.83
75466;HTU21D;64049;46.290;44.240;2022-10-12T03:52:04;10.26;76.81
75466;HTU21D;64049;46.290;44.240;2022-10-12T03:54:30;10.28;76.81
75466;HTU21D;64049;46.290;44.240;2022-10-12T03:56:56;10.28;76.91
75466;HTU21D;64049;46.290;44.240;2022-10-12T03:59:22;10.29;76.89
75466;HTU21D;64049;46.290;44.240;2022-10-12T04:01:48;10.31;76.86
75466;HTU21D;64049;46.290;44.240;2022-10-12T04:04:14;10.31;76.86
75466;HTU21D;64049;46.290;44.240;2022-10-12T04:06:40;10.33;76.81
75466;HTU21D;64049;46.290;44.240;2022-10-12T04:09:06;10.34;76.71
75466;HTU21D;64049;46.290;44.240;2022-10-12T04:11:32;10.34;76.70
75466;HTU21D;64049;46.290;44.240;2022-10-12T04:13:58;10.36;76.62
75466;HTU21D;64049;46.290;44.240;2022-10-12T04:16:24;10.38;76.55
75466;HTU21D;64049;46.290;44.240;2022-10-12T04:18:50;10.39;76.53
75466;HTU21D;64049;46.290;44.240;2022-10-12T04:21:23;10.43;76.49
75466;HTU21D;64049;46.290;44.240;2022-10-12T04:23:49;10.45;76.31
75466;HTU21D;64049;46.290;44.240;2022-10-12T04:26:15;10.50;76.21
75466;HTU21D;64049;46.290;44.240;2022-10-12T04:28:41;10.52;76.08
75466;HTU21D;64049;46.290;44.240;2022-10-12T04:31:07;10.53;75.95
75466;HTU21D;64049;46.290;44.240;2022-10-12T04:33:33;10.54;75.95
75466;HTU21D;64049;46.290;44.240;2022-10-12T04:35:58;10.51;75.90
75466;HTU21D;64049;46.290;44.240;2022-10-12T04:38:24;10.51;75.79
75466;HTU21D;64049;46.290;44.240;2022-10-12T04:40:50;10.48;75.79
75466;HTU21D;64049;46.290;44.240;2022-10-12T04:43:16;10.46;75.81
75466;HTU21D;64049;46.290;44.240;2022-10-12T04:45:42;10.46;75.83
75466;HTU21D;64049;46.290;44.240;2022-10-12T04:48:08;10.48;75.86
75466;HTU21D;64049;46.290;44.240;2022-10-12T04:50:34;10.50;75.82
75466;HTU21D;64049;46.290;44.240;2022-10-12T04:53:00;10.51;75.79
75466;HTU21D;64049;46.290;44.240;2022-10-12T04:55:26;10.52;75.89
75466;HTU21D;64049;46.290;44.240;2022-10-12T04:57:52;10.52;75.86
75466;HTU21D;64049;46.290;44.240;2022-10-12T05:00:18;10.52;75.84
75466;HTU21D;64049;46.290;44.240;2022-10-12T05:02:44;10.52;75.89
75466;HTU21D;64049;46.290;44.240;2022-10-12T05:05:10;10.54;75.89
75466;HTU21D;64049;46.290;44.240;2022-10-12T05:07:36;10.57;75.82
75466;HTU21D;64049;46.290;44.240;2022-10-12T05:10:02;10.59;75.77
75466;HTU21D;64049;46.290;44.240;2022-10-12T05:12:28;10.62;75.75
75466;HTU21D;64049;46.290;44.240;2022-10-12T05:14:54;10.64;75.71
75466;HTU21D;64049;46.290;44.240;2022-10-12T05:17:20;10.64;75.68
75466;HTU21D;64049;46.290;44.240;2022-10-12T05:19:46;10.65;75.67
75466;HTU21D;64049;46.290;44.240;2022-10-12T05:22:12;10.62;75.58
75466;HTU21D;64049;46.290;44.240;2022-10-12T05:24:38;10.62;75.69
75466;HTU21D;64049;46.290;44.240;2022-10-12T05:27:04;10.62;75.71
75466;HTU21D;64049;46.290;44.240;2022-10-12T05:29:30;10.62;75.80
75466;HTU21D;64049;46.290;44.240;2022-10-12T05:31:56;10.64;75.69
75466;HTU21D;64049;46.290;44.240;2022-10-12T05:34:21;10.64;75.62
75466;HTU21D;64049;46.290;44.240;2022-10-12T05:36:47;10.68;75.65
75466;HTU21D;64049;46.290;44.240;2022-10-12T05:39:13;10.71;75.59
75466;HTU21D;64049;46.290;44.240;2022-10-12T05:41:39;10.72;75.68
75466;HTU21D;64049;46.290;44.240;2022-10-12T05:44:05;10.71;75.63
75466;HTU21D;64049;46.290;44.240;2022-10-12T05:46:31;10.73;75.60
75466;HTU21D;64049;46.290;44.240;2022-10-12T05:48:57;10.73;75.57
75466;HTU21D;64049;46.290;44.240;2022-10-12T05:51:23;10.72;75.64
75466;HTU21D;64049;46.290;44.240;2022-10-12T05:53:49;10.70;75.63
75466;HTU21D;64049;46.290;44.240;2022-10-12T05:56:15;10.73;75.66
75466;HTU21D;64049;46.290;44.240;2022-10-12T05:58:41;10.73;75.70
75466;HTU21D;64049;46.290;44.240;2022-10-12T06:01:10;10.74;75.66
75466;HTU21D;64049;46.290;44.240;2022-10-12T06:03:36;10.74;75.55
75466;HTU21D;64049;46.290;44.240;2022-10-12T06:06:02;10.72;75.50
75466;HTU21D;64049;46.290;44.240;2022-10-12T06:08:29;10.72;75.61
75466;HTU21D;64049;46.290;44.240;2022-10-12T06:10:56;10.71;75.68
75466;HTU21D;64049;46.290;44.240;2022-10-12T06:13:22;10.70;75.65
75466;HTU21D;64049;46.290;44.240;2022-10-12T06:15:48;10.71;75.64
75466;HTU21D;64049;46.290;44.240;2022-10-12T06:18:15;10.72;75.67
75466;HTU21D;64049;46.290;44.240;2022-10-12T06:20:52;10.73;75.68
75466;HTU21D;64049;46.290;44.240;2022-10-12T06:23:19;10.75;75.67
75466;HTU21D;64049;46.290;44.240;2022-10-12T06:25:46;10.75;75.66
75466;HTU21D;64049;46.290;44.240;2022-10-12T06:28:14;10.74;75.69
75466;HTU21D;64049;46.290;44.240;2022-10-12T06:30:40;10.74;75.70
75466;HTU21D;64049;46.290;44.240;2022-10-12T06:33:06;10.80;75.67
75466;HTU21D;64049;46.290;44.240;2022-10-12T06:35:32;10.84;75.47
75466;HTU21D;64049;46.290;44.240;2022-10-12T06:37:58;10.87;75.33
75466;HTU21D;64049;46.290;44.240;2022-10-12T06:40:24;10.90;75.10
75466;HTU21D;64049;46.290;44.240;2022-10-12T06:42:50;10.97;75.13
75466;HTU21D;64049;46.290;44.240;2022-10-12T06:45:16;11.03;75.08
75466;HTU21D;64049;46.290;44.240;2022-10-12T06:47:43;11.04;74.96
75466;HTU21D;64049;46.290;44.240;2022-10-12T06:50:10;11.02;74.92
75466;HTU21D;64049;46.290;44.240;2022-10-12T06:52:36;11.01;74.91
75466;HTU21D;64049;46.290;44.240;2022-10-12T06:55:02;11.02;74.64
75466;HTU21D;64049;46.290;44.240;2022-10-12T06:57:29;11.08;74.56
75466;HTU21D;64049;46.290;44.240;2022-10-12T06:59:55;11.07;74.43
75466;HTU21D;64049;46.290;44.240;2022-10-12T07:02:21;11.05;74.38
75466;HTU21D;64049;46.290;44.240;2022-10-12T07:04:50;11.11;74.15
75466;HTU21D;64049;46.290;44.240;2022-10-12T07:07:17;11.15;73.96
75466;HTU21D;64049;46.290;44.240;2022-10-12T07:09:43;11.23;73.80
75466;HTU21D;64049;46.290;44.240;2022-10-12T07:12:09;11.32;73.71
75466;HTU21D;64049;46.290;44.240;2022-10-12T07:14:35;11.40;73.67
75466;HTU21D;64049;46.290;44.240;2022-10-12T07:17:01;11.53;73.06
75466;HTU21D;64049;46.290;44.240;2022-10-12T07:19:27;11.58;72.63
75466;HTU21D;64049;46.290;44.240;2022-10-12T07:21:53;11.60;72.40
75466;HTU21D;64049;46.290;44.240;2022-10-12T07:24:19;11.62;72.32
75466;HTU21D;64049;46.290;44.240;2022-10-12T07:26:44;11.62;71.87
75466;HTU21D;64049;46.290;44.240;2022-10-12T07:29:10;11.64;71.61
75466;HTU21D;64049;46.290;44.240;2022-10-12T07:31:36;11.72;71.34
75466;HTU21D;64049;46.290;44.240;2022-10-12T07:34:02;11.82;71.39
75466;HTU21D;64049;46.290;44.240;2022-10-12T07:36:28;11.90;71.23
75466;HTU21D;64049;46.290;44.240;2022-10-12T07:38:54;11.99;71.22
75466;HTU21D;64049;46.290;44.240;2022-10-12T07:41:20;11.88;70.58
75466;HTU21D;64049;46.290;44.240;2022-10-12T07:43:46;11.82;71.13
75466;HTU21D;64049;46.290;44.240;2022-10-12T07:46:12;11.87;70.71
75466;HTU21D;64049;46.290;44.240;2022-10-12T07:48:38;11.86;70.47
75466;HTU21D;64049;46.290;44.240;2022-10-12T07:51:08;11.83;70.69
75466;HTU21D;64049;46.290;44.240;2022-10-12T07:53:36;11.81;70.59
75466;HTU21D;64049;46.290;44.240;2022-10-12T07:56:03;11.87;70.79
75466;HTU21D;64049;46.290;44.240;2022-10-12T07:58:30;11.96;70.67
75466;HTU21D;64049;46.290;44.240;2022-10-12T08:01:07;12.06;70.32
75466;HTU21D;64049;46.290;44.240;2022-10-12T08:03:34;12.19;70.11
75466;HTU21D;64049;46.290;44.240;2022-10-12T08:06:09;12.33;69.74
75466;HTU21D;64049;46.290;44.240;2022-10-12T08:08:36;12.36;69.00
75466;HTU21D;64049;46.290;44.240;2022-10-12T08:11:05;12.30;69.21
75466;HTU21D;64049;46.290;44.240;2022-10-12T08:13:32;12.16;69.23
75466;HTU21D;64049;46.290;44.240;2022-10-12T08:15:59;12.08;69.65
75466;HTU21D;64049;46.290;44.240;2022-10-12T08:18:25;12.00;69.88
75466;HTU21D;64049;46.290;44.240;2022-10-12T08:20:51;11.97;70.03
75466;HTU21D;64049;46.290;44.240;2022-10-12T08:23:17;11.92;69.71
75466;HTU21D;64049;46.290;44.240;2022-10-12T08:25:53;11.94;69.68
75466;HTU21D;64049;46.290;44.240;2022-10-12T08:28:20;12.00;69.33
75466;HTU21D;64049;46.290;44.240;2022-10-12T08:30:45;12.00;69.36
75466;HTU21D;64049;46.290;44.240;2022-10-12T08:33:12;12.05;69.27
75466;HTU21D;64049;46.290;44.240;2022-10-12T08:35:39;12.06;69.06
75466;HTU21D;64049;46.290;44.240;2022-10-12T08:38:06;12.05;69.34
75466;HTU21D;64049;46.290;44.240;2022-10-12T08:40:35;11.96;69.58
75466;HTU21D;64049;46.290;44.240;2022-10-12T08:45:55;11.72;70.06
75466;HTU21D;64049;46.290;44.240;2022-10-12T08:50:59;11.68;70.42
75466;HTU21D;64049;46.290;44.240;2022-10-12T08:55:55;11.79;70.23
75466;HTU21D;64049;46.290;44.240;2022-10-12T08:58:30;11.81;70.23
75466;HTU21D;64049;46.290;44.240;2022-10-12T09:06:19;11.90;69.78
75466;HTU21D;64049;46.290;44.240;2022-10-12T09:11:42;11.92;70.08
75466;HTU21D;64049;46.290;44.240;2022-10-12T09:14:27;12.23;69.52
75466;HTU21D;64049;46.290;44.240;2022-10-12T09:16:55;12.36;68.98
75466;HTU21D;64049;46.290;44.240;2022-10-12T09:19:37;12.44;68.65
75466;HTU21D;64049;46.290;44.240;2022-10-12T09:22:13;12.44;68.34
75466;HTU21D;64049;46.290;44.240;2022-10-12T09:24:47;12.32;68.61
75466;HTU21D;64049;46.290;44.240;2022-10-12T09:27:16;12.07;69.07
75466;HTU21D;64049;46.290;44.240;2022-10-12T09:29:49;11.83;69.82
75466;HTU21D;64049;46.290;44.240;2022-10-12T09:34:56;11.98;69.90
75466;HTU21D;64049;46.290;44.240;2022-10-12T09:37:31;12.11;69.68
75466;HTU21D;64049;46.290;44.240;2022-10-12T09:39:58;12.20;69.13
75466;HTU21D;64049;46.290;44.240;2022-10-12T09:42:24;12.33;68.87
75466;HTU21D;64049;46.290;44.240;2022-10-12T09:45:13;12.43;68.51
75466;HTU21D;64049;46.290;44.240;2022-10-12T09:47:40;12.35;68.34
75466;HTU21D;64049;46.290;44.240;2022-10-12T09:50:07;12.33;68.52
75466;HTU21D;64049;46.290;44.240;2022-10-12T09:55:23;12.22;69.10
75466;HTU21D;64049;46.290;44.240;2022-10-12T09:57:56;12.23;68.81
75466;HTU21D;64049;46.290;44.240;2022-10-12T10:02:55;12.58;67.93
75466;HTU21D;64049;46.290;44.240;2022-10-12T10:05:27;12.73;67.49
75466;HTU21D;64049;46.290;44.240;2022-10-12T10:11:05;12.91;65.78
75466;HTU21D;64049;46.290;44.240;2022-10-12T10:13:45;13.03;65.43
75466;HTU21D;64049;46.290;44.240;2022-10-12T10:16:11;13.08;64.97
75466;HTU21D;64049;46.290;44.240;2022-10-12T10:18:40;13.01;65.26
75466;HTU21D;64049;46.290;44.240;2022-10-12T10:21:14;13.03;65.07
75466;HTU21D;64049;46.290;44.240;2022-10-12T10:23:49;12.99;64.90
75466;HTU21D;64049;46.290;44.240;2022-10-12T10:26:18;12.87;64.95
75466;HTU21D;64049;46.290;44.240;2022-10-12T10:28:47;12.71;65.13
75466;HTU21D;64049;46.290;44.240;2022-10-12T10:33:41;12.45;66.38
75466;HTU21D;64049;46.290;44.240;2022-10-12T10:38:57;12.53;66.55
75466;HTU21D;64049;46.290;44.240;2022-10-12T10:41:50;12.61;66.52
75466;HTU21D;64049;46.290;44.240;2022-10-12T10:44:25;12.66;66.30
75466;HTU21D;64049;46.290;44.240;2022-10-12T10:46:54;12.69;66.21
75466;HTU21D;64049;46.290;44.240;2022-10-12T10:49:42;12.77;66.04
75466;HTU21D;64049;46.290;44.240;2022-10-12T10:52:31;12.77;65.61
75466;HTU21D;64049;46.290;44.240;2022-10-12T10:55:18;12.61;65.47
75466;HTU21D;64049;46.290;44.240;2022-10-12T10:58:48;12.44;66.01
75466;HTU21D;64049;46.290;44.240;2022-10-12T11:00:45;12.25;66.71
75466;HTU21D;64049;46.290;44.240;2022-10-12T11:03:27;12.10;67.47
75466;HTU21D;64049;46.290;44.240;2022-10-12T11:06:15;12.01;67.85
75466;HTU21D;64049;46.290;44.240;2022-10-12T11:08:43;11.91;68.28
75466;HTU21D;64049;46.290;44.240;2022-10-12T11:11:20;11.90;68.75
75466;HTU21D;64049;46.290;44.240;2022-10-12T11:13:59;11.94;69.04
75466;HTU21D;64049;46.290;44.240;2022-10-12T11:16:44;12.01;69.13
75466;HTU21D;64049;46.290;44.240;2022-10-12T11:19:28;12.00;68.76
75466;HTU21D;64049;46.290;44.240;2022-10-12T11:21:58;11.90;68.83
75466;HTU21D;64049;46.290;44.240;2022-10-12T11:24:34;11.83;69.26
75466;HTU21D;64049;46.290;44.240;2022-10-12T11:30:00;11.73;69.55
75466;HTU21D;64049;46.290;44.240;2022-10-12T11:32:30;11.77;69.75
75466;HTU21D;64049;46.290;44.240;2022-10-12T11:35:01;11.96;69.45
75466;HTU21D;64049;46.290;44.240;2022-10-12T11:37:38;12.58;68.33
75466;HTU21D;64049;46.290;44.240;2022-10-12T11:40:11;13.15;66.40
75466;HTU21D;64049;46.290;44.240;2022-10-12T11:42:41;13.24;65.54
75466;HTU21D;64049;46.290;44.240;2022-10-12T11:45:22;13.17;65.77
75466;HTU21D;64049;46.290;44.240;2022-10-12T11:47:53;12.95;65.75
75466;HTU21D;64049;46.290;44.240;2022-10-12T11:52:49;12.56;66.52
75466;HTU21D;64049;46.290;44.240;2022-10-12T11:58:07;12.56;66.07
75466;HTU21D;64049;46.290;44.240;2022-10-12T12:00:53;12.53;64.92
75466;HTU21D;64049;46.290;44.240;2022-10-12T12:06:16;12.59;64.36
75466;HTU21D;64049;46.290;44.240;2022-10-12T12:11:23;12.59;64.34
75466;HTU21D;64049;46.290;44.240;2022-10-12T12:13:49;12.60;64.31
75466;HTU21D;64049;46.290;44.240;2022-10-12T12:24:55;12.37;65.57
75466;HTU21D;64049;46.290;44.240;2022-10-12T12:32:52;12.35;66.06
75466;HTU21D;64049;46.290;44.240;2022-10-12T12:35:23;12.34;66.29
75466;HTU21D;64049;46.290;44.240;2022-10-12T12:40:37;12.43;66.35
75466;HTU21D;64049;46.290;44.240;2022-10-12T12:57:37;12.58;65.75
75466;HTU21D;64049;46.290;44.240;2022-10-12T13:05:04;12.45;65.85
75466;HTU21D;64049;46.290;44.240;2022-10-12T13:10:51;12.28;66.23
75466;HTU21D;64049;46.290;44.240;2022-10-12T13:18:58;12.27;66.33
75466;HTU21D;64049;46.290;44.240;2022-10-12T13:21:29;12.30;66.37
75466;HTU21D;64049;46.290;44.240;2022-10-12T13:24:04;12.32;66.33
75466;HTU21D;64049;46.290;44.240;2022-10-12T13:26:36;12.28;66.17
75466;HTU21D;64049;46.290;44.240;2022-10-12T13:29:06;12.23;66.37
75466;HTU21D;64049;46.290;44.240;2022-10-12T13:31:37;12.19;66.43
75466;HTU21D;64049;46.290;44.240;2022-10-12T13:34:20;12.14;66.55
75466;HTU21D;64049;46.290;44.240;2022-10-12T13:37:09;12.14;66.75
75466;HTU21D;64049;46.290;44.240;2022-10-12T13:39:40;12.10;66.89
75466;HTU21D;64049;46.290;44.240;2022-10-12T13:42:15;12.04;67.11
75466;HTU21D;64049;46.290;44.240;2022-10-12T13:44:42;12.02;67.33
75466;HTU21D;64049;46.290;44.240;2022-10-12T13:47:29;11.99;67.53
75466;HTU21D;64049;46.290;44.240;2022-10-12T13:49:57;11.98;67.68
75466;HTU21D;64049;46.290;44.240;2022-10-12T13:52:28;11.94;67.92
75466;HTU21D;64049;46.290;44.240;2022-10-12T13:54:54;11.91;68.11
75466;HTU21D;64049;46.290;44.240;2022-10-12T13:57:39;11.90;68.24
75466;HTU21D;64049;46.290;44.240;2022-10-12T14:03:01;11.83;68.52
75466;HTU21D;64049;46.290;44.240;2022-10-12T14:05:29;11.78;68.61
75466;HTU21D;64049;46.290;44.240;2022-10-12T14:07:59;11.72;68.96
75466;HTU21D;64049;46.290;44.240;2022-10-12T14:10:35;11.67;69.06
75466;HTU21D;64049;46.290;44.240;2022-10-12T14:13:02;11.66;69.00
75466;HTU21D;64049;46.290;44.240;2022-10-12T14:15:32;11.63;68.91
75466;HTU21D;64049;46.290;44.240;2022-10-12T14:17:59;11.62;68.95
75466;HTU21D;64049;46.290;44.240;2022-10-12T14:22:56;11.62;68.65
75466;HTU21D;64049;46.290;44.240;2022-10-12T14:25:26;11.60;68.60
75466;HTU21D;64049;46.290;44.240;2022-10-12T14:30:24;11.54;68.63
75466;HTU21D;64049;46.290;44.240;2022-10-12T14:32:54;11.53;68.66
75466;HTU21D;64049;46.290;44.240;2022-10-12T14:35:25;11.54;68.64
75466;HTU21D;64049;46.290;44.240;2022-10-12T14:37:53;11.52;68.65
75466;HTU21D;64049;46.290;44.240;2022-10-12T14:43:20;11.43;68.83
75466;HTU21D;64049;46.290;44.240;2022-10-12T14:45:51;11.37;68.87
75466;HTU21D;64049;46.290;44.240;2022-10-12T14:48:19;11.22;69.11
75466;HTU21D;64049;46.290;44.240;2022-10-12T14:50:48;11.10;69.45
75466;HTU21D;64049;46.290;44.240;2022-10-12T14:53:14;11.01;69.67
75466;HTU21D;64049;46.290;44.240;2022-10-12T14:55:41;10.96;69.74
75466;HTU21D;64049;46.290;44.240;2022-10-12T14:58:13;10.90;69.81
75466;HTU21D;64049;46.290;44.240;2022-10-12T15:00:39;10.86;69.97
75466;HTU21D;64049;46.290;44.240;2022-10-12T15:03:05;10.75;70.13
75466;HTU21D;64049;46.290;44.240;2022-10-12T15:05:32;10.67;70.41
75466;HTU21D;64049;46.290;44.240;2022-10-12T15:07:59;10.65;70.64
75466;HTU21D;64049;46.290;44.240;2022-10-12T15:10:27;10.54;70.70
75466;HTU21D;64049;46.290;44.240;2022-10-12T15:12:53;10.44;71.04
75466;HTU21D;64049;46.290;44.240;2022-10-12T15:15:40;10.34;71.36
75466;HTU21D;64049;46.290;44.240;2022-10-12T15:18:07;10.27;71.56
75466;HTU21D;64049;46.290;44.240;2022-10-12T15:20:34;10.23;71.67
75466;HTU21D;64049;46.290;44.240;2022-10-12T15:23:00;10.20;71.79
75466;HTU21D;64049;46.290;44.240;2022-10-12T15:28:03;10.15;72.07
75466;HTU21D;64049;46.290;44.240;2022-10-12T15:30:30;10.13;72.25
75466;HTU21D;64049;46.290;44.240;2022-10-12T15:32:56;10.04;72.34
75466;HTU21D;64049;46.290;44.240;2022-10-12T15:35:25;9.94;72.67
75466;HTU21D;64049;46.290;44.240;2022-10-12T15:37:52;9.93;72.99
75466;HTU21D;64049;46.290;44.240;2022-10-12T15:40:21;9.93;72.99
75466;HTU21D;64049;46.290;44.240;2022-10-12T15:42:47;9.90;72.98
75466;HTU21D;64049;46.290;44.240;2022-10-12T15:45:30;9.84;73.32
75466;HTU21D;64049;46.290;44.240;2022-10-12T15:47:56;9.76;73.52
75466;HTU21D;64049;46.290;44.240;2022-10-12T15:50:26;9.63;73.73
75466;HTU21D;64049;46.290;44.240;2022-10-12T15:52:57;9.51;74.15
75466;HTU21D;64049;46.290;44.240;2022-10-12T15:55:25;9.45;74.44
75466;HTU21D;64049;46.290;44.240;2022-10-12T15:57:52;9.41;74.46
75466;HTU21D;64049;46.290;44.240;2022-10-12T16:00:21;9.42;74.73
75466;HTU21D;64049;46.290;44.240;2022-10-12T16:02:47;9.48;74.67
75466;HTU21D;64049;46.290;44.240;2022-10-12T16:05:20;9.53;74.66
75466;HTU21D;64049;46.290;44.240;2022-10-12T16:07:47;9.53;74.57
75466;HTU21D;64049;46.290;44.240;2022-10-12T16:10:15;9.50;74.75
75466;HTU21D;64049;46.290;44.240;2022-10-12T16:12:42;9.46;74.88
75466;HTU21D;64049;46.290;44.240;2022-10-12T16:15:11;9.37;74.94
75466;HTU21D;64049;46.290;44.240;2022-10-12T16:17:39;9.31;75.18
75466;HTU21D;64049;46.290;44.240;2022-10-12T16:20:05;9.26;75.15
75466;HTU21D;64049;46.290;44.240;2022-10-12T16:22:33;9.24;75.35
75466;HTU21D;64049;46.290;44.240;2022-10-12T16:25:00;9.19;75.44
75466;HTU21D;64049;46.290;44.240;2022-10-12T16:27:29;9.15;75.71
75466;HTU21D;64049;46.290;44.240;2022-10-12T16:29:55;9.06;75.72
75466;HTU21D;64049;46.290;44.240;2022-10-12T16:32:21;8.96;75.74
75466;HTU21D;64049;46.290;44.240;2022-10-12T16:34:46;8.85;75.95
75466;HTU21D;64049;46.290;44.240;2022-10-12T16:37:13;8.77;76.08
75466;HTU21D;64049;46.290;44.240;2022-10-12T16:39:40;8.65;76.07
75466;HTU21D;64049;46.290;44.240;2022-10-12T16:42:06;8.51;76.50
75466;HTU21D;64049;46.290;44.240;2022-10-12T16:44:32;8.39;76.70
75466;HTU21D;64049;46.290;44.240;2022-10-12T16:46:58;8.28;76.84
75466;HTU21D;64049;46.290;44.240;2022-10-12T16:49:27;8.22;77.06
75466;HTU21D;64049;46.290;44.240;2022-10-12T16:51:53;8.26;77.26
75466;HTU21D;64049;46.290;44.240;2022-10-12T16:54:19;8.30;77.31
75466;HTU21D;64049;46.290;44.240;2022-10-12T16:56:46;8.31;77.26
75466;HTU21D;64049;46.290;44.240;2022-10-12T16:59:12;8.41;77.65
75466;HTU21D;64049;46.290;44.240;2022-10-12T17:01:38;8.46;77.44
75466;HTU21D;64049;46.290;44.240;2022-10-12T17:04:05;8.48;77.50
75466;HTU21D;64049;46.290;44.240;2022-10-12T17:06:31;8.43;77.34
75466;HTU21D;64049;46.290;44.240;2022-10-12T17:08:57;8.21;77.49
75466;HTU21D;64049;46.290;44.240;2022-10-12T17:11:23;8.03;77.74
75466;HTU21D;64049;46.290;44.240;2022-10-12T17:13:50;7.90;77.93
75466;HTU21D;64049;46.290;44.240;2022-10-12T17:16:17;7.83;78.24
75466;HTU21D;64049;46.290;44.240;2022-10-12T17:19:01;7.89;78.47